x

9439040 - Astoria, Or (asto3) Weather Station

7:54 - Tue 24th May 2016 All times are PDT. -7 hours from GMT.

  • Wind
    7mph, 8mph gusts
  • Sea Temp 60°f
  • Aire Temp 55°f
  • Sea Pressure 1015.4mb
  • 9439040 - Astoria, Or
  • 9439040 - Astoria, Or

More Historic Weather Station data

Upgrade to MSW Pro to gain access to the past 30 days of data for over 8000 Wavebouys and Weather Stations around the globe.

Join Pro

Comparision Forecast

View Surf forecast
   
mar 05/24 7:54 7 8 mph 1015.4mb 60f 55f
7:48 7 10 mph 1015.3mb 60f 56f
7:42 7 10 mph 1015.2mb 60f 56f
7:36 7 9 mph 1015.1mb 60f 56f
7:30 7 9 mph 1015.1mb 60f 56f
7:24 6 7 mph 1015mb 60f 56f
7:18 3 5 mph 1015mb 60f 55f
7:12 2 3 mph 1015mb 60f 55f
7:06 2 5 mph 1014.9mb 60f 55f
7:00 2 6 mph 1014.8mb 60f 55f
6:54 3 7 mph 1014.8mb 60f 55f
6:48 7 8 mph - 60f 55f
6:42 5 6 mph - 60f 55f
6:36 6 7 mph - 60f 55f
6:30 6 8 mph 1014.8mb 60f 55f
6:24 2 3 mph 1014.7mb 60f 55f
6:18 3 6 mph 1014.7mb 60f 55f
6:12 5
mph
1014.7mb 60f 55f
6:06 3 5 mph 1014.7mb 60f 55f
6:00 5 7 mph 1014.7mb 60f 55f
5:54 7 8 mph 1014.7mb 60f 55f
5:48 5 6 mph 1014.7mb 60f 56f
5:42 5 6 mph 1014.6mb 60f 55f
5:36 3 6 mph 1014.6mb 60f 55f
5:30 3 6 mph 1014.6mb 60f 55f
5:24 3 6 mph 1014.7mb 60f 56f
5:18 3 5 mph 1014.7mb 60f 55f
5:12 2 5 mph 1014.7mb 60f 55f
5:06 2 3 mph 1014.7mb 60f 55f
5:00  -  2 mph 1014.8mb 60f 55f
4:54 2
mph
1014.8mb 60f 55f
4:48 2
mph
1014.8mb 60f 55f
4:42 1 2 mph 1014.7mb 60f 55f
4:36 2
mph
1014.7mb 60f 55f
4:30 2
mph
1014.7mb 60f 55f
4:24 2 3 mph 1014.7mb 60f 55f
4:18 2 3 mph 1014.8mb 60f 55f
4:12 1 2 mph 1014.8mb 60f 55f
4:06 2
mph
1014.8mb 60f 55f
4:00 2 3 mph 1014.8mb 60f 54f
3:54 2 3 mph 1014.8mb 60f 54f
3:48 1 2 mph 1014.8mb 60f 54f
3:42 2
mph
1014.8mb 60f 54f
3:36 2
mph
1014.7mb 60f 54f
3:30 1 2 mph 1014.7mb 60f 54f
3:24 2
mph
1014.6mb 60f 54f
3:18 1 3 mph 1014.7mb 60f 55f
3:12  -  2 mph 1014.7mb 60f 55f
3:06 2 5 mph 1014.6mb 60f 55f
3:00 2 3 mph 1014.7mb 60f 55f
2:54 2 5 mph 1014.7mb 60f 55f
2:48 2 6 mph 1014.7mb 61f 55f
2:42 6 8 mph 1014.7mb 61f 55f
2:36 3 6 mph 1014.7mb 61f 55f
2:30 6 8 mph 1014.7mb 61f 55f
2:24 5 8 mph 1014.7mb 61f 55f
2:18 6 7 mph 1014.7mb 61f 55f
2:12 7 9 mph 1014.7mb 61f 55f
2:06 7 9 mph 1014.7mb 61f 55f
2:00 7 9 mph 1014.7mb 61f 55f
1:54 7 9 mph 1014.7mb 61f 55f
1:48 8 10 mph 1014.7mb 61f 55f
1:42 8 9 mph 1014.7mb 61f 55f
1:36 8 9 mph 1014.8mb 61f 55f
1:30 7 8 mph 1014.8mb 61f 55f
1:24 7 8 mph 1014.8mb 61f 56f
1:18 6 8 mph 1014.8mb 61f 56f
1:12 7 9 mph 1014.8mb 61f 56f
1:06 7 9 mph 1014.8mb 61f 56f
1:00 8 9 mph 1014.8mb 61f 56f
12:54 7 9 mph 1014.8mb 61f 56f
12:48 5 6 mph 1014.8mb 61f 56f
12:42 3 5 mph 1014.8mb 61f 55f
12:36 2 3 mph 1014.7mb 61f 55f
12:30 2 3 mph 1014.7mb 61f 55f
12:24  -  1 mph 1014.8mb 61f 55f
12:18 1 2 mph 1014.8mb 61f 55f
12:12 1
mph
1014.8mb 61f 55f
12:06 1 2 mph 1014.8mb 61f 55f
12:00 1 2 mph 1014.7mb 61f 55f
lun 05/23 11:54 2 3 mph 1014.7mb 61f 55f
11:48 2
mph
1014.7mb 61f 55f
11:42  -  3 mph 1014.6mb 61f 55f
11:36 2 3 mph 1014.6mb 61f 55f
11:30 2 3 mph 1014.6mb 61f 55f
11:24 1 3 mph 1014.6mb 61f 55f
11:18 2 3 mph 1014.5mb 61f 55f
11:12 3 5 mph 1014.5mb 61f 55f
11:06 5
mph
1014.5mb 61f 55f
11:00 5 6 mph 1014.4mb 61f 55f
10:54 5 6 mph 1014.5mb 61f 55f
10:48  -  mph 1014.5mb 61f 55f
10:42  -  mph 1014.5mb 61f 56f
10:36  -  mph 1014.5mb 61f 56f
10:30 6 7 mph 1014.5mb 61f 56f
10:24 6 7 mph 1014.5mb 61f 56f
10:18 6 7 mph 1014.6mb 61f 56f
10:12 6 7 mph 1014.6mb 61f 56f
10:06 3 5 mph 1014.6mb 61f 56f
10:00 3 6 mph 1014.6mb 61f 56f
9:54 5 6 mph 1014.5mb 60f 56f
9:48 3 5 mph 1014.5mb 60f 56f
9:42 5 7 mph 1014.4mb 60f 56f
9:36 6 9 mph 1014.3mb 60f 56f
9:30 7 10 mph 1014.3mb 60f 56f
9:24 7 9 mph 1014.2mb 60f 56f
9:18 8 9 mph 1014.1mb 60f 56f
9:12 8 9 mph 1014.1mb 60f 56f
9:06 9 11 mph 1014mb 60f 57f
9:00 8 10 mph 1014.1mb 60f 57f
8:54 8 10 mph 1014mb 60f 57f
8:48 8 10 mph 1014mb 60f 57f
8:42 9 10 mph 1014mb 60f 56f
8:36 8 11 mph 1013.9mb 60f 57f
8:30 9 11 mph 1013.9mb 60f 57f
8:24 9 13 mph 1013.8mb 61f 57f
8:18  -  mph 1013.8mb 61f 57f
8:12  -  mph 1013.8mb 61f 57f
8:06  -  mph 1013.7mb 61f 57f
8:00  -  mph 1013.7mb 62f -
7:54  -  mph 1013.6mb 62f -
7:48  -  mph 1013.6mb 62f -
7:42  -  mph 1013.6mb 62f -
7:36  -  mph 1013.5mb 62f -
7:30 10 13 mph 1013.5mb 62f 58f
7:24 10 13 mph 1013.5mb 61f 58f
7:18 11 13 mph 1013.5mb 61f -
7:12 9 14 mph 1013.5mb 61f -
7:06 11 14 mph 1013.5mb 61f -
7:00 10 14 mph 1013.5mb 61f 58f
6:54 10 14 mph 1013.5mb 60f 58f
6:48 10 15 mph - 60f -
6:42 11 14 mph - 60f -
6:36 11 15 mph - 60f -
6:30  -  mph - 60f -
6:24  -  mph - 60f -
6:18  -  mph - 60f -
6:12  -  mph - 60f -
6:06  -  mph - 60f -
6:00  -  mph - 60f 59f
5:54  -  mph - 60f 58f
5:48 13 14 mph 1013.5mb - -
5:42 11 14 mph 1013.5mb - -
5:36 10 14 mph 1013.6mb - -
5:30  -  mph 1013.5mb 61f -
5:24  -  mph 1013.6mb 61f -
5:18 11 14 mph - 61f -
5:12 13 15 mph - 61f -
5:06 13 15 mph - 61f -
5:00 13 15 mph 1013.6mb 61f 59f
4:54 13 15 mph 1013.7mb 61f 59f
4:48  -  mph 1013.7mb - -
4:42  -  mph 1013.6mb - -
4:36  -  mph 1013.6mb - -
4:30  -  mph - 60f -
4:24  -  mph - 60f -
4:18  -  mph 1013.5mb 60f -
4:12  -  mph 1013.4mb 60f -
4:06  -  mph 1013.3mb 60f -
4:00  -  mph 1013.3mb 60f 61f
3:54  -  mph 1013.3mb 60f 61f
3:48  -  mph - 60f -
3:42  -  mph - 60f -
3:36  -  mph - 60f -
3:30 10 13 mph 1013.3mb 60f 60f
3:24 11 15 mph 1013.3mb 60f 60f
3:18  -  mph 1013.2mb 61f -
3:12  -  mph 1013.2mb 61f -
3:06  -  mph 1013.2mb 61f -
3:00  -  mph 1013.2mb 61f 59f
2:54  -  mph 1013.2mb 61f 59f
2:48  -  mph 1013.2mb - -
2:42  -  mph 1013.2mb - -
2:36  -  mph 1013.2mb - -
2:30 11 15 mph 1013.1mb 61f 59f
2:24 11 14 mph 1013.1mb 61f 59f
2:18 10 13 mph 1013.1mb 61f 59f
2:12 10 13 mph 1013.1mb 61f 59f
2:06 10 13 mph 1013mb 61f 59f
2:00 10 13 mph 1013mb 61f 59f
1:54 11 13 mph 1012.9mb 61f 59f
1:48 10 11 mph 1012.9mb 61f 59f
1:42 11 13 mph 1012.9mb 61f 59f
1:36 10 11 mph 1012.9mb 61f 59f
1:30 9 11 mph 1012.9mb 61f 59f
1:24 10 11 mph 1013mb 61f 59f
1:18 9 10 mph 1013mb 61f 59f
1:12 9 10 mph 1013mb 61f 59f
1:06 9 11 mph 1013mb 61f 59f
1:00 9 11 mph 1013mb 61f 59f
12:54 10 11 mph 1013mb 61f 59f
12:48 9 11 mph 1013mb 61f 59f
12:42 8 10 mph 1013mb 61f 59f
12:36 9 10 mph 1013mb 61f 58f
12:30 6 8 mph 1013mb 61f 59f
12:24 5 6 mph 1013mb 61f 60f
12:18 5 7 mph 1013.1mb 61f 60f
12:12 6 8 mph 1013mb 61f 60f
12:06 7 9 mph 1013mb 61f 60f
12:00 8 11 mph 1013mb 61f 60f
11:54 9 13 mph 1013mb 60f 60f
11:48 9 13 mph 1012.9mb 60f 60f
11:42 10 15 mph 1012.9mb 60f 60f
11:36 10 13 mph 1012.9mb 60f 60f
11:30 9 14 mph 1012.9mb 60f 60f
11:24 10 14 mph 1012.9mb 60f 59f
11:18 10 13 mph 1012.9mb 60f 59f
11:12 10 14 mph 1013mb 60f 59f
11:06 11 14 mph 1013mb 60f 59f
11:00 10 14 mph 1013mb 60f -
10:54 11 15 mph 1013.1mb 60f -
10:48  -  mph - - 58f
10:42  -  mph - - 59f
10:36  -  mph - - 59f
10:30 10 14 mph 1013.3mb 60f 58f
10:24 9 14 mph 1013.3mb 60f 58f
10:18 10 14 mph 1013.2mb 60f 58f
10:12 10 13 mph 1013.3mb 60f 58f
10:06 11 15 mph 1013.3mb 60f 57f
10:00 10 13 mph 1013.2mb 60f 57f
9:54 9 13 mph 1013.3mb 60f 57f
9:48 9 13 mph 1013.2mb 60f 57f
9:42 11 13 mph 1013.3mb 60f 57f
9:36 10 14 mph 1013.3mb 60f 56f
9:30 9 13 mph 1013.2mb 60f 57f
9:24 9 11 mph 1013.2mb 60f 56f
9:18 6 9 mph 1013.1mb 60f 56f
9:12 6 8 mph 1013.1mb 60f 56f
9:06 5 6 mph 1013.2mb 60f 57f
9:00 2 7 mph 1013.2mb 59f 57f
8:54 1 6 mph 1013.2mb 59f 56f
8:48 5 9 mph 1013.3mb 59f 56f
8:42 6 8 mph 1013.3mb 59f 56f
8:36 1 5 mph 1013.4mb 59f 56f
8:30 5 7 mph 1013.4mb 59f 56f
8:24 2 6 mph 1013.3mb 59f 56f
8:18 1 6 mph 1013.4mb 59f 56f
8:12 1 5 mph 1013.4mb 59f 55f
8:06 2 5 mph 1013.4mb 59f 55f
8:00 2 6 mph 1013.5mb 59f 55f
7:54 3 7 mph 1013.5mb 59f 55f
7:48 5 7 mph 1013.5mb 59f 54f
7:42 3 7 mph 1013.5mb 60f 54f
7:36 5 7 mph 1013.5mb 60f 54f
7:30  -  2 mph 1013.5mb 60f 54f
7:24 2
mph
1013.5mb 60f 54f
7:18  -  1 mph 1013.5mb 60f 54f
7:12 1 5 mph 1013.5mb 60f 54f
7:06 3 6 mph 1013.4mb 60f 53f
7:00 2 3 mph 1013.4mb 60f 53f
6:54 2 5 mph 1013.3mb 60f 53f
6:48 2 5 mph 1013.3mb 60f 53f
6:42 2 3 mph 1013.3mb 60f 53f
6:36 1 2 mph 1013.3mb 59f 53f
6:30 3 5 mph 1013.3mb 60f 53f
6:24 2 3 mph 1013.3mb 60f 53f
6:18 1 2 mph 1013.3mb 60f 53f
6:12 2
mph
1013.3mb 60f 53f
6:06 2 3 mph 1013.3mb 60f 52f
6:00 3
mph
1013.3mb 60f 53f
5:54 3
mph
1013.2mb 60f 53f
5:48 2 3 mph 1013.2mb 60f 53f
5:42 3 5 mph 1013.2mb 59f 53f
5:36 3 5 mph 1013.2mb 59f 52f
5:30 3 6 mph 1013.2mb 59f 52f
5:24 3 5 mph 1013.2mb 59f 52f
5:18 5 6 mph 1013.2mb 59f 53f
5:12 3 5 mph 1013.2mb 59f 53f
5:06 3 6 mph 1013.3mb 59f 53f
5:00 2 3 mph 1013.3mb 60f 53f
4:54 2 3 mph 1013.3mb 59f 53f
4:48 2 5 mph 1013.3mb 59f 53f
4:42 3 5 mph 1013.3mb 59f 53f
4:36 2 5 mph 1013.4mb 60f 53f
4:30 3 6 mph 1013.4mb 60f 53f
4:24 3 5 mph 1013.3mb 60f 53f
4:18 1 3 mph 1013.3mb 60f 53f
4:12 2 3 mph 1013.4mb 60f 53f
4:06 1 5 mph 1013.4mb 60f 53f
4:00 2 6 mph 1013.4mb 60f 52f
3:54 3 5 mph 1013.4mb 60f 52f
3:48 3 5 mph 1013.4mb 60f 52f
3:42 3 5 mph 1013.4mb 60f 53f
3:36 2 3 mph 1013.4mb 60f 53f
3:30 2 3 mph 1013.4mb 60f 53f
3:24 2 3 mph 1013.4mb 60f 53f
3:18 3
mph
1013.4mb 60f 53f
3:12 2 3 mph 1013.5mb 60f 53f
3:06 2 5 mph 1013.5mb 60f 53f
3:00 1 5 mph 1013.5mb 60f 53f
2:54 3 5 mph 1013.5mb 60f 53f
2:48 5 7 mph 1013.5mb 60f 53f
2:42 5 6 mph 1013.5mb 60f 53f
2:36 5 7 mph 1013.5mb 60f 54f
2:30 6 7 mph 1013.5mb 60f 54f
2:24 6 7 mph 1013.5mb 60f 54f
2:18 6 7 mph 1013.6mb 60f 53f
2:12 5 6 mph 1013.6mb 60f 53f
2:06 5 6 mph 1013.6mb 60f 53f
2:00 2 5 mph 1013.7mb 60f 54f
1:54 2 5 mph 1013.7mb 60f 53f
1:48 5
mph
1013.7mb 60f 53f
1:42 3 5 mph 1013.8mb 60f 54f
1:36 5 6 mph 1013.8mb 60f 53f
1:30 6 7 mph 1013.8mb 60f 54f
1:24 6 7 mph 1013.9mb 60f 54f
1:18 6 7 mph 1013.9mb 60f 54f
1:12 6 7 mph 1013.9mb 60f 53f
1:06 6 8 mph 1013.9mb 60f 54f
1:00 6 7 mph 1013.9mb 60f 54f
12:54 6 7 mph 1013.9mb 60f 54f
12:48 5 6 mph 1013.9mb 60f 54f
12:42 6 7 mph 1014mb 60f 54f
12:36 6 8 mph 1014mb 60f 54f
12:30 5 7 mph 1014mb 60f 54f
12:24 5 7 mph 1014.1mb 60f 54f
12:18 6 7 mph 1014.1mb 60f 54f
12:12 5 6 mph 1014mb 60f 54f
12:06 6 7 mph 1014mb 60f 54f
12:00 6 7 mph 1014.1mb 60f 54f
dom 05/22 11:54 6 7 mph 1014.1mb 60f 54f
11:48 6 8 mph 1014mb 60f 54f
11:42 6 8 mph 1014mb 60f 54f
11:36 6 8 mph 1014.1mb 60f 54f
11:30 5 8 mph 1014.1mb 60f 54f
11:24 6 8 mph 1014mb 60f 54f
11:18 7 9 mph 1014mb 60f 54f
11:12 7 9 mph 1014.1mb 60f 54f
11:06 8
mph
1014.1mb 60f 54f
11:00 7 8 mph 1014.1mb 60f 54f
10:54 7 8 mph 1014.2mb 60f 54f
10:48  -  mph 1014.3mb 60f 54f
10:42  -  mph 1014.3mb 60f 54f
10:36  -  mph 1014.2mb 60f 54f
10:30 6 8 mph 1014.3mb 60f 54f
10:24 6 8 mph 1014.3mb 60f 55f
10:18 6 9 mph 1014.3mb 60f 55f
10:12 6 8 mph 1014.2mb 60f 55f
10:06 6 7 mph 1014.3mb 60f 55f
10:00 6 7 mph 1014.3mb 60f 55f
9:54 5 6 mph 1014.4mb 60f 55f
9:48 2 3 mph 1014.5mb 60f 55f
9:42 2 5 mph 1014.5mb 60f 55f
9:36 3 5 mph 1014.5mb 60f 55f
9:30 3 5 mph 1014.5mb 60f 55f
9:24 3 6 mph 1014.5mb 60f 55f
9:18 5 6 mph 1014.5mb 60f 55f
9:12 3 6 mph 1014.4mb 60f 55f
9:06 2 7 mph 1014.4mb 60f 55f
9:00 6 8 mph 1014.3mb 60f 55f
8:54 6 8 mph 1014.2mb 60f 56f
8:48 6 9 mph 1014.3mb 60f 56f
8:42 7 8 mph 1014.3mb 60f 56f
8:36 7 9 mph 1014.3mb 60f 56f
8:30 9 11 mph 1014.4mb 60f 56f
8:24 8 13 mph 1014.4mb 60f 56f
8:18  -  mph 1014.4mb 60f 56f
8:12  -  mph 1014.4mb 60f 56f
8:06  -  mph 1014.4mb 60f 56f
8:00  -  mph 1014.4mb 60f -
7:54  -  mph 1014.4mb 60f -
7:48 10 17 mph 1014.5mb 60f -
7:42 9 11 mph 1014.4mb 60f -
7:36 8 10 mph 1014.4mb 60f -
7:30 10 13 mph 1014.4mb 60f -
7:24 7 10 mph 1014.4mb 60f -
7:18  -  mph 1014.4mb 60f -
7:12  -  mph 1014.4mb 60f -
7:06  -  mph 1014.3mb 60f -
7:00 9 14 mph 1014.3mb 60f 56f
6:54 10 14 mph 1014.3mb 60f 56f
6:48 7 15 mph 1014.3mb - -
6:42 13 16 mph 1014.2mb - -
6:36 10 14 mph 1014.2mb - -
6:30 10 13 mph 1014.2mb 60f 56f
6:24 13 15 mph 1014.2mb 60f 56f
6:18  -  mph 1014.1mb 60f 56f
6:12  -  mph 1014.1mb 60f 56f
6:06  -  mph 1014.2mb 60f 56f
6:00 14 16 mph 1014.2mb 60f 56f
5:54 10 15 mph 1014.2mb 60f 56f
5:48 14 18 mph 1014.2mb 60f -
5:42 10 20 mph 1014.1mb 60f -
5:36 13 15 mph 1014.2mb 60f -
5:30  -  mph 1014.2mb 60f -
5:24  -  mph 1014.2mb 60f -
5:18 11 17 mph - 60f -
5:12 11 18 mph - 60f -
5:06 13 18 mph - 60f -
5:00  -  mph 1014mb 60f -
4:54  -  mph 1014.1mb 60f -
4:48  -  mph 1014.1mb 60f -
4:42  -  mph 1014.1mb 60f -
4:36  -  mph 1014.1mb 60f -
4:30  -  mph 1014.1mb 60f -
4:24  -  mph 1014mb 60f -
4:18  -  mph 1014mb 60f 57f
4:12  -  mph 1014.1mb 60f 57f
4:06  -  mph 1014.1mb 60f 57f
4:00  -  mph - 60f -
3:54  -  mph - 60f -
3:48 13 16 mph - 60f -
3:42 10 20 mph - 60f -
3:36 14 17 mph - 60f -
3:30  -  mph - 60f -
3:24  -  mph - 60f -
3:18 10 16 mph - 60f -
3:12 14 18 mph - 60f -
3:06 13 20 mph - 60f -
3:00  -  mph 1014.3mb 60f -
2:54  -  mph 1014.3mb 60f -
2:48  -  mph 1014.3mb 60f 56f
2:42  -  mph 1014.1mb 60f 57f
2:36  -  mph 1014.1mb 60f 57f
2:30 13 21 mph 1014mb 60f 58f
2:24 15 23 mph 1014mb 60f 58f
2:18 9 15 mph 1014mb 60f 57f
2:12 11 18 mph 1014.1mb 60f 57f
2:06 11 17 mph 1014.1mb 60f 57f
2:00 13 18 mph 1014.1mb 60f 57f
1:54 13 18 mph 1014.1mb 60f 58f
1:48 11 16 mph 1014.1mb 60f 58f
1:42 11 21 mph 1014.1mb 60f 58f
1:36 15 18 mph 1014mb 60f 57f
1:30 10 15 mph 1014mb 60f 57f
1:24 10 17 mph 1014mb 60f 57f
1:18 11 15 mph 1014.1mb 60f 56f
1:12 10 14 mph 1014.1mb 60f 57f
1:06 14 16 mph 1014mb 60f 56f
1:00 6 11 mph 1014.1mb 60f 56f
12:54 9 11 mph 1014.1mb 60f 56f
12:48 6 13 mph 1014.1mb 60f 56f
12:42 9 13 mph 1014.2mb 60f 56f
12:36 9 14 mph 1014.2mb 60f 56f
12:30 9 14 mph 1014.3mb 60f 55f
12:24 10 14 mph 1014.3mb 60f 55f
12:18 8 13 mph 1014.3mb 60f 55f
12:12 9 13 mph 1014.3mb 60f 55f
12:06 10 14 mph 1014.3mb 60f 55f
12:00 7 13 mph 1014.3mb 60f 55f
11:54 8 11 mph 1014.3mb 60f 55f
11:48 11 18 mph 1014.3mb 60f 56f
11:42 10 16 mph 1014.3mb 60f 56f
11:36 9 11 mph 1014.1mb 60f 57f
11:30 7 14 mph 1014.1mb 60f 57f
11:24 8 11 mph 1014.1mb 60f 57f
11:18 3 9 mph 1014mb 60f 57f
11:12 8 9 mph 1014mb 60f 57f
11:06 6 11 mph 1014mb 60f 57f
11:00 7 9 mph 1014mb 60f 57f
10:54 7 9 mph 1014mb 60f 57f
10:48 7 11 mph 1014.1mb 60f 57f
10:42 7 10 mph 1014.1mb 60f 57f
10:36 7 10 mph 1014.1mb 60f 57f
10:30 10 13 mph 1014.1mb 60f 56f
10:24 9 10 mph 1014.1mb 60f 56f
10:18 7 8 mph 1014mb 60f 56f
10:12 5 8 mph 1013.9mb 60f 56f
10:06 2 8 mph 1013.9mb 60f 56f
10:00 3 7 mph 1014mb 60f 56f
9:54 6 9 mph 1014mb 60f 56f
9:48 5 8 mph 1013.9mb 60f 56f
9:42 6 9 mph 1014mb 60f 56f
9:36 3 7 mph 1014mb 60f 56f
9:30 5 8 mph 1014mb 59f 55f
9:24 5 8 mph 1014mb 59f 55f
9:18 3 6 mph 1014mb 59f 55f
9:12 6 7 mph 1014.1mb 59f 54f
9:06 7 10 mph 1014.1mb 59f 54f
9:00 6 8 mph 1014.1mb 59f 54f
8:54 6 8 mph 1014.1mb 59f 53f
8:48 7 10 mph 1014mb 59f 53f
8:42 7 9 mph 1014mb 59f 53f
8:36 7 9 mph 1014mb 59f 53f
8:30 7 9 mph 1014mb 59f 53f
8:24 7 9 mph 1014mb 59f 53f
8:18 7 8 mph 1013.9mb 59f 53f
8:12 6 8 mph 1013.9mb 59f 53f
8:06 6 8 mph 1013.9mb 59f 53f
8:00 6 8 mph 1013.8mb 60f 53f
7:54 6 7 mph 1013.8mb 60f 53f
7:48 6 7 mph 1013.8mb 60f 53f
7:42 6 8 mph 1013.8mb 60f 53f
7:36 6 10 mph 1013.8mb 60f 53f
7:30 7 9 mph 1013.7mb 60f 53f
7:24 7 9 mph 1013.7mb 60f 53f
7:18 5 6 mph 1013.7mb 60f 53f
7:12 5 7 mph 1013.7mb 60f 53f
7:06 7 10 mph 1013.6mb 60f 53f
7:00 6 7 mph 1013.6mb 60f 53f
6:54 5 6 mph 1013.5mb 60f 53f
6:48 5 6 mph 1013.5mb 60f 53f
6:42 3 6 mph 1013.5mb 60f 52f
6:36 3 7 mph 1013.5mb 60f 52f
6:30 6
mph
1013.4mb 60f 52f
6:24 6 7 mph 1013.4mb 60f 52f
6:18 5 8 mph 1013.3mb 60f 52f
6:12 6 8 mph 1013.3mb 60f 53f
6:06 7 9 mph 1013.3mb 60f 53f
6:00 8 10 mph 1013.3mb 60f 53f
5:54 7 10 mph 1013.3mb 60f 53f
5:48 7 9 mph 1013.3mb 60f 52f
5:42 6 7 mph 1013.2mb 60f 52f
5:36 6 7 mph 1013.2mb 60f 52f
5:30 5 7 mph 1013.2mb 60f 52f
5:24 5 7 mph 1013.2mb 60f 52f
5:18 5 6 mph 1013.2mb 60f 52f
5:12 3 6 mph 1013.1mb 60f 52f
5:06 3 6 mph 1013.1mb 60f 52f
5:00 3 5 mph 1013.1mb 60f 53f
4:54 3 6 mph 1013.1mb 60f 53f
4:48 3 5 mph 1013.1mb 60f 53f
4:42 3 6 mph 1013.1mb 60f 53f
4:36 3 5 mph 1013.1mb 60f 53f
4:30 3 5 mph 1013.1mb 60f 52f
4:24 3 5 mph 1013.2mb 60f 53f
4:18 5
mph
1013.2mb 60f 53f
4:12 3 5 mph 1013.1mb 60f 53f
4:06 3 5 mph 1013.1mb 60f 53f
4:00 3 6 mph 1013.1mb 60f 53f
3:54 5
mph
1013.2mb 60f 53f
3:48 5
mph
1013.2mb 60f 53f
3:42 5 6 mph 1013.2mb 60f 53f
3:36 5 6 mph 1013.3mb 60f 53f
3:30 3 8 mph 1013.3mb 60f 53f
3:24 6 7 mph 1013.4mb 60f 53f
3:18 5 7 mph 1013.3mb 60f 53f
3:12 3 5 mph 1013.3mb 60f 53f
3:06 5 8 mph 1013.4mb 60f 53f
3:00 7 8 mph 1013.4mb 60f 53f
2:54 6 8 mph 1013.4mb 60f 53f
2:48 6 7 mph 1013.3mb 60f 54f
2:42 6 7 mph 1013.4mb 60f 54f
2:36 5 7 mph 1013.3mb 60f 54f
2:30 5 7 mph 1013.3mb 60f 54f
2:24 7 8 mph 1013.4mb 60f 54f
2:18 5 7 mph 1013.5mb 60f 53f
2:12 3 6 mph 1013.4mb 60f 54f
2:06 2 5 mph 1013.5mb 60f 53f
2:00 2 7 mph 1013.5mb 60f 53f
1:54 3 6 mph 1013.5mb 60f 53f
1:48 5 7 mph 1013.4mb 60f 54f
1:42 5 7 mph 1013.4mb 60f 54f
1:36 5 8 mph 1013.4mb 60f 54f
1:30 5 7 mph 1013.4mb 60f 53f
1:24 6 8 mph 1013.5mb 60f 53f
1:18 6 8 mph 1013.5mb 60f 53f
1:12 3 5 mph 1013.5mb 60f 54f
1:06 1 3 mph 1013.5mb 60f 55f
1:00 2 5 mph 1013.5mb 60f 55f
12:54 2 5 mph 1013.6mb 60f 55f
12:48 2 3 mph 1013.6mb 60f 55f
12:42 2 6 mph 1013.6mb 60f 55f
12:36 3 5 mph 1013.6mb 60f 55f
12:30 5 6 mph 1013.7mb 60f 55f
12:24 6 7 mph 1013.7mb 60f 55f
12:18 3 7 mph 1013.6mb 60f 55f
12:12 5 8 mph 1013.7mb 60f 55f
12:06 5 7 mph 1013.7mb 60f 55f
12:00 6 8 mph 1013.7mb 60f 55f
sáb 05/21 11:54 5 7 mph 1013.7mb 60f 55f
11:48 5 7 mph 1013.7mb 60f 54f
11:42 5 6 mph 1013.7mb 60f 54f
11:36 6 8 mph 1013.6mb 60f 54f
11:30 5 9 mph 1013.6mb 60f 54f
11:24 6 8 mph 1013.7mb 60f 54f
11:18 6 8 mph 1013.7mb 60f 54f
11:12 6 8 mph 1013.6mb 60f 54f
11:06 6 9 mph 1013.6mb 60f 54f
11:00 6 9 mph 1013.6mb 60f 54f
10:54 6 9 mph 1013.6mb 60f 54f
10:48  -  mph 1013.6mb 60f 54f
10:42  -  mph 1013.6mb 60f 54f
10:36  -  mph 1013.5mb 60f 55f
10:30 5 7 mph 1013.5mb 60f 55f
10:24 6 7 mph 1013.5mb 60f 55f
10:18 6 8 mph 1013.6mb 60f 55f
10:12 5 7 mph 1013.6mb 60f 55f
10:06 5 6 mph 1013.6mb 60f 55f
10:00 3 5 mph 1013.5mb 60f 55f
9:54 3 5 mph 1013.5mb 60f 55f
9:48 2 6 mph 1013.4mb 60f 55f
9:42 5 6 mph 1013.4mb 60f 55f
9:36 5 6 mph 1013.4mb 60f 55f
9:30 3 6 mph 1013.3mb 60f 55f
9:24 3 7 mph 1013.2mb 60f 55f
9:18 5 6 mph 1013.2mb 60f 55f
9:12 5 7 mph 1013.1mb 60f 55f
9:06 3 6 mph 1013.1mb 60f 55f
9:00 3 5 mph 1013.1mb 60f 55f
8:54 3 6 mph 1013mb 60f 55f
8:48  -  mph 1013mb 60f 55f
8:42  -  mph 1013mb 60f 55f
8:36  -  mph 1013.1mb 60f 56f
8:30 6 7 mph 1013.1mb 60f 56f
8:24 7 10 mph 1013mb 60f 56f
8:18  -  mph 1013mb 60f 56f
8:12  -  mph 1013mb 60f 56f
8:06  -  mph 1013mb 60f 56f
8:00  -  mph 1013mb 60f -
7:54  -  mph 1012.9mb 60f -
7:48  -  mph 1012.9mb - 56f
7:42  -  mph 1012.9mb - 56f
7:36  -  mph 1012.8mb - 56f
7:30  -  mph - 60f -
7:24  -  mph - 60f -
7:18  -  mph 1012.7mb 60f 56f
7:12  -  mph 1012.7mb 60f 56f
7:06  -  mph 1012.7mb 60f 56f
7:00  -  mph 1012.6mb 60f 56f
6:54  -  mph 1012.6mb 60f 56f
6:48  -  mph 1012.5mb - -
6:42  -  mph 1012.5mb - -
6:36  -  mph 1012.5mb - -
6:30  -  mph 1012.5mb - -
6:24  -  mph 1012.5mb - -
6:18  -  mph 1012.6mb 60f 57f
6:12  -  mph 1012.6mb 60f 56f
6:06  -  mph 1012.6mb 60f 56f
6:00  -  mph 1012.5mb 60f -
5:54  -  mph 1012.5mb 60f -
5:48  -  mph 1012.5mb - -
5:42  -  mph 1012.6mb - -
5:36  -  mph 1012.6mb - -
5:30 10 14 mph 1012.6mb 60f -
5:24 11 15 mph 1012.6mb 60f -
5:18  -  mph 1012.6mb 60f 56f
5:12  -  mph 1012.6mb 60f 57f
5:06  -  mph 1012.6mb 60f 57f
5:00  -  mph - 60f -
4:54  -  mph - 60f -
4:48  -  mph 1012.5mb - -
4:42  -  mph 1012.4mb - -
4:36  -  mph 1012.4mb - -
4:30 14 16 mph 1012.3mb 60f 56f
4:24 11 16 mph 1012.3mb 60f 56f
4:18  -  mph 1012.3mb 60f -
4:12  -  mph 1012.3mb 60f -
4:06  -  mph 1012.3mb 60f -
4:00  -  mph - 60f 56f
3:54  -  mph - 60f 56f
3:48  -  mph 1012.2mb 60f -
3:42  -  mph 1012.2mb 60f -
3:36  -  mph 1012.1mb 60f -
3:30  -  mph 1012.1mb 60f -
3:24  -  mph 1012.1mb 60f -
3:18  -  mph 1012.1mb 60f 57f
3:12  -  mph 1012mb 60f 56f
3:06  -  mph 1012mb 60f 56f
3:00  -  mph 1012mb 60f -
2:54  -  mph 1012mb 60f -
2:48  -  mph 1012mb - -
2:42  -  mph 1012mb - -
2:36  -  mph 1011.9mb - -
2:30 14 20 mph 1011.9mb 60f 56f
2:24 16 21 mph 1011.9mb 60f 56f
2:18 16 20 mph 1011.9mb 60f 56f
2:12 16 21 mph 1011.7mb 60f 56f
2:06 16 21 mph 1011.6mb 60f 56f
2:00 15 20 mph 1011.6mb 60f 56f
1:54 14 16 mph 1011.6mb 60f 56f
1:48 13 20 mph 1011.6mb 60f 56f
1:42 14 18 mph 1011.6mb 60f 56f
1:36 16 18 mph 1011.5mb 60f 56f
1:30 16 18 mph 1011.4mb 60f 56f
1:24 15 17 mph 1011.4mb 60f 56f
1:18 15 20 mph 1011.4mb 60f 56f
1:12 15 17 mph 1011.4mb 60f 56f
1:06 16 20 mph 1011.4mb 60f 56f
1:00 14 18 mph 1011.4mb 60f 56f
12:54 16 18 mph 1011.4mb 60f 56f
12:48 14 20 mph 1011.3mb 60f 56f
12:42 15 18 mph 1011.3mb 60f 56f
12:36 15 20 mph 1011.3mb 60f 56f
12:24 15 18 mph 1011.3mb 60f 56f
12:18 15 18 mph 1011.2mb 60f 56f
12:12 15 18 mph 1011.2mb 60f 56f
12:06 16 20 mph 1011.2mb 60f 56f
12:00 16 20 mph 1011.1mb 60f 56f
11:54 15 22 mph 1011.1mb 60f 56f
11:48 15 18 mph 1011mb 60f 56f
11:42 14 20 mph 1011mb 60f 56f
11:36 14 18 mph 1011mb 60f 56f
11:30 15 21 mph 1011mb 60f 56f
11:24 15 20 mph 1011mb 60f 56f
11:18 15 18 mph 1010.9mb 60f 56f
11:12 14 16 mph 1010.9mb 60f 56f
11:06 13 15 mph 1010.9mb 60f 56f
11:00 15 17 mph 1010.9mb 60f 56f
10:54 14 16 mph 1010.8mb 60f 56f
10:48 10 15 mph 1010.7mb 60f 56f
10:42 11 17 mph 1010.6mb 60f 56f
10:36 14 16 mph 1010.5mb 60f 56f
10:30 11 15 mph 1010.5mb 60f 55f
10:24 14 16 mph 1010.4mb 60f 55f
10:18 14 18 mph 1010.4mb 60f 55f
10:12 13 17 mph 1010.4mb 60f 55f
10:06 13 18 mph 1010.2mb 60f 55f
10:00 14 17 mph 1010.1mb 60f 55f
9:54 13 17 mph 1010.1mb 60f 55f
9:48 10 15 mph 1010.1mb 60f 55f
9:42 13 17 mph 1010.2mb 60f 55f
9:36 14 16 mph 1010.2mb 60f 55f
9:30 11 15 mph 1010.1mb 60f 55f
9:24 13 16 mph 1010.1mb 60f 55f
9:18 13 16 mph 1010mb 60f 55f
9:12 8 11 mph 1010mb 60f 54f
9:06 8 13 mph 1010mb 60f 54f
9:00 9 11 mph 1010mb 60f 54f
8:54 9 11 mph 1009.9mb 60f 54f
8:48 8 13 mph 1009.9mb 60f 54f
8:42 10 13 mph 1009.8mb 60f 53f
8:36 10 13 mph 1009.7mb 60f 53f
8:30 10 14 mph 1009.6mb 60f 53f
8:24 8 13 mph 1009.6mb 60f 53f
8:18 10 14 mph 1009.6mb 60f 53f
8:12 10 14 mph 1009.6mb 60f 53f
8:06 9 13 mph 1009.6mb 59f 53f
8:00 10 14 mph 1009.6mb 59f 53f
7:54 8 14 mph 1009.6mb 59f 53f
7:48 8 13 mph 1009.5mb 59f 53f
7:42 7 11 mph 1009.4mb 59f 53f
7:36 7 13 mph 1009.3mb 59f 53f
7:30 8 13 mph 1009.3mb 59f 53f
7:24 8 11 mph 1009.3mb 59f 53f
7:18 8 11 mph 1009.3mb 59f 53f
7:12 8 11 mph 1009.3mb 59f 53f
7:06 9 11 mph 1009.3mb 59f 53f
7:00 6 8 mph 1009.4mb 59f 53f
6:54 7 10 mph 1009.3mb 59f 53f
6:48 6 10 mph 1009.2mb 59f 53f
6:42 8 9 mph 1009.2mb 59f 53f
6:36 8 9 mph 1009.2mb 59f 53f
6:30 6 9 mph 1009.2mb 59f 53f
6:24 6 8 mph 1009.2mb 59f 53f
6:18 7 9 mph 1009.2mb 59f 53f
6:12 7 8 mph 1009.2mb 59f 53f
6:06 7 9 mph 1009.1mb 59f 53f
6:00 6 8 mph 1009.1mb 59f 53f
5:54 7 10 mph 1009mb 60f 53f
5:48 6 8 mph 1009mb 60f 53f
5:42 6 9 mph 1009mb 60f 53f
5:36 7 9 mph 1009mb 60f 53f
5:30 7 8 mph 1008.9mb 60f 53f
5:24 7 9 mph 1008.8mb 60f 53f
5:18 7 8 mph 1008.9mb 60f 53f
5:12 3 5 mph 1009mb 60f 53f
5:06 3 6 mph 1009mb 59f 53f
5:00 3 6 mph 1009mb 59f 53f
4:54 6 7 mph 1009mb 59f 53f
4:48 5
mph
1009mb 60f 53f
4:42 3 5 mph 1009mb 60f 52f
4:36 3 7 mph 1009.1mb 60f 53f
4:30 6 8 mph 1009.2mb 59f 53f
4:24 6 8 mph 1009.2mb 60f 53f
4:18 7 9 mph 1009.1mb 60f 53f
4:12 7 9 mph 1009.1mb 59f 53f
4:06 7 10 mph 1009mb 60f 53f
4:00 9 10 mph 1008.9mb 60f 53f
3:54 8 10 mph 1008.9mb 60f 53f
3:48 9 10 mph 1008.8mb 60f 53f
3:42 8 9 mph 1008.8mb 60f 53f
3:36 8 9 mph 1008.8mb 60f 53f
3:30 9 10 mph 1008.8mb 60f 53f
3:24 8 9 mph 1008.8mb 60f 53f
3:18 6 9 mph 1008.9mb 60f 53f
3:12 5 8 mph 1008.8mb 60f 53f
3:06 6 8 mph 1008.7mb 59f 53f
3:00 7 8 mph 1008.7mb 59f 53f
2:54 6 8 mph 1008.7mb 60f 53f
2:48 7 8 mph 1008.8mb 60f 53f
2:42 1 5 mph 1008.9mb 60f 52f
2:36 1 2 mph 1008.9mb 60f 52f
2:30 1 2 mph 1008.9mb 60f 51f
2:24  -  2 mph 1008.9mb 60f 51f
2:18 1 3 mph 1008.9mb 60f 52f
2:12 3 5 mph 1008.9mb 60f 51f
2:06 1 3 mph 1008.9mb 60f 52f
2:00 1 3 mph 1009mb 60f 51f
1:54 2 3 mph 1009mb 60f 52f
1:48 2 3 mph 1008.9mb 60f 51f
1:42  -  3 mph 1009mb 60f 51f
1:36  -  2 mph 1009mb 60f 51f
1:30 1 3 mph 1009mb 60f 51f
1:24 2 3 mph 1009mb 60f 51f
1:18 2 3 mph 1009mb 60f 52f
1:12  -  2 mph 1009.1mb 60f 52f
1:06 1 2 mph 1009.1mb 60f 52f
1:00 2 3 mph 1009mb 60f 52f
12:54  -  2 mph 1009mb 60f 52f
12:48 1 3 mph 1009mb 60f 52f
12:42  -  3 mph 1008.9mb 60f 51f
12:36 2 5 mph 1008.9mb 60f 51f
12:30 5 6 mph 1009mb 60f -
12:24 6
mph
1009.1mb 60f -
12:18 2 3 mph 1009.1mb 60f 52f
12:12 2 3 mph 1009.1mb 60f 52f
12:06 3 5 mph 1009mb 60f 53f
12:00 3 5 mph 1009mb 60f 53f
vie 05/20 11:54 2
mph
1009mb 60f 53f
11:48 1 2 mph 1008.9mb 60f 53f
11:42 2
mph
1008.9mb 60f 53f
11:36 1 3 mph 1009mb 60f 53f
11:30 2 3 mph 1009.1mb 60f 53f
11:24 2 3 mph 1009.1mb 60f 53f
11:18 1 3 mph 1009.2mb 60f 53f
11:12 2 5 mph 1009.2mb 60f 53f
11:06  -  3 mph 1009.1mb 60f 53f
11:00 3 6 mph 1009.1mb 60f 53f
10:54 6 7 mph 1009.1mb 60f 53f
10:48  -  mph 1009.1mb 60f 53f
10:42  -  mph 1009.1mb 60f 53f
10:36  -  mph 1009.2mb 60f 53f
10:30 2 5 mph 1009.3mb 60f 53f
10:24 2 5 mph 1009.3mb 60f 54f
10:18  -  2 mph 1009.2mb 60f 54f
10:12  -  3 mph 1009.3mb 60f 54f
10:06 1 3 mph 1009.2mb 60f 54f
10:00 1 6 mph 1009.2mb 60f 54f
9:54 2 6 mph 1009.1mb 60f 56f
9:48 3 5 mph 1009mb 60f 56f
9:42 3 7 mph 1009mb 60f 56f
9:36 3 6 mph 1009mb 60f 56f
9:30 6
mph
1008.9mb 60f 56f
9:24 5 6 mph 1008.9mb 60f 56f
9:18 6 7 mph 1008.9mb 60f 56f
9:12 5 6 mph 1008.8mb 60f 56f
9:06 5 6 mph 1008.8mb 60f 56f
9:00 5 7 mph 1008.7mb 60f 56f
8:54 6 7 mph 1008.7mb 60f 56f
8:48  -  mph 1008.7mb 60f 56f
8:42  -  mph 1008.7mb 60f 56f
8:36  -  mph 1008.7mb 60f 56f
8:30 8 10 mph 1008.7mb 60f 56f
8:24 8 9 mph 1008.6mb 60f 57f
8:18 7 10 mph 1008.6mb 60f 57f
8:12 9 10 mph 1008.6mb 60f 57f
8:06 8 11 mph 1008.6mb 60f 57f
8:00  -  mph - 60f 57f
7:54  -  mph - 60f 57f
7:48 11 14 mph - - -
7:42 10 15 mph - - -
7:36 10 11 mph - - -
7:30  -  mph - 60f -
7:24  -  mph - 60f -
7:18  -  mph 1008.4mb 60f 57f
7:12  -  mph 1008.4mb 60f 57f
7:06  -  mph 1008.3mb 60f 57f
7:00  -  mph 1008.3mb 60f 57f
6:54  -  mph 1008.2mb 60f 58f
6:48 9 15 mph 1008.2mb - -
6:42 11 14 mph 1008.1mb - -
6:36 13 16 mph 1008.2mb - -
6:30 14 15 mph 1008.2mb - -
6:24 11 16 mph 1008.3mb - -
6:18 13 15 mph - - 57f
6:12 14 16 mph - - 57f
6:06 14 16 mph - - 57f
6:00  -  mph 1008.3mb 60f 56f
5:54  -  mph 1008.3mb 60f 57f
5:48 15 17 mph - - -
5:42 15 17 mph - - -
5:36 14 17 mph - - -
5:30  -  mph 1008.2mb 61f -
5:24  -  mph 1008.2mb 61f -
5:18 14 17 mph 1008.2mb 61f 56f
5:12 14 16 mph 1008.2mb 60f 56f
5:06 14 17 mph 1008.1mb 60f 56f
5:00  -  mph 1008.1mb 60f 56f
4:54  -  mph 1008.1mb 60f 56f
4:48 14 17 mph 1008.2mb 60f -
4:42 15 17 mph 1008.2mb 60f -
4:36 13 16 mph 1008.3mb 60f -
4:30  -  mph - 60f 56f
4:24  -  mph - 60f 56f
4:18  -  mph 1008.4mb 60f 56f
4:12  -  mph 1008.4mb 60f 56f
4:06  -  mph 1008.4mb 60f 56f
4:00  -  mph 1008.4mb 60f -
3:54  -  mph 1008.3mb 60f -